Time;durP1;ratioP1;P1;durP2;ratioP2;P2;SDS_P1;SDS_P2;PMS_P1;PMS_P2;Temp;Humidity;BMP_temperature;BMP_pressure;BME280_temperature;BME280_humidity;BME280_pressure;Samples;Min_cycle;Max_cycle;Signal;HPM_P1;HPM_P2
2022/08/29 00:01:11;;;;;;;3.55;1.98;;;23.30;54.30;;;;;;4462742;32;20538;-70
2022/08/29 00:03:37;;;;;;;4.38;2.30;;;23.30;54.40;;;;;;4462670;32;20085;-70
2022/08/29 00:06:04;;;;;;;3.17;2.00;;;23.30;54.40;;;;;;4462897;32;20208;-71
2022/08/29 00:08:30;;;;;;;3.35;1.98;;;23.30;54.40;;;;;;4462869;32;20061;-70
2022/08/29 00:10:56;;;;;;;2.58;1.90;;;23.30;54.40;;;;;;4462950;32;20254;-70
2022/08/29 00:13:22;;;;;;;3.38;1.80;;;23.30;54.40;;;;;;4462642;32;20093;-70
2022/08/29 00:15:48;;;;;;;2.72;1.90;;;23.30;54.40;;;;;;4462568;32;20169;-71
2022/08/29 00:18:16;;;;;;;3.95;2.00;;;23.30;54.40;;;;;;4462460;32;20629;-70
2022/08/29 00:20:43;;;;;;;3.67;1.98;;;23.30;54.50;;;;;;4462422;32;20070;-70
2022/08/29 00:23:09;;;;;;;2.63;1.80;;;23.30;54.50;;;;;;4448211;32;20096;-71
2022/08/29 00:25:35;;;;;;;3.45;1.98;;;23.30;54.50;;;;;;4462208;32;20211;-70
2022/08/29 00:28:02;;;;;;;3.30;1.98;;;23.30;54.60;;;;;;4462594;32;20078;-70
2022/08/29 00:30:29;;;;;;;3.90;2.08;;;23.30;54.60;;;;;;4462566;32;20092;-70
2022/08/29 00:32:54;;;;;;;3.28;2.03;;;23.30;54.60;;;;;;4462058;32;20092;-70
2022/08/29 00:35:26;;;;;;;2.90;1.73;;;23.30;54.60;;;;;;4461966;32;20073;-70
2022/08/29 00:37:53;;;;;;;3.17;1.70;;;23.30;54.70;;;;;;4462348;32;20503;-70
2022/08/29 00:40:24;;;;;;;3.78;1.90;;;23.30;54.70;;;;;;4462117;32;20164;-70
2022/08/29 00:42:50;;;;;;;3.50;1.90;;;23.30;54.70;;;;;;4462228;32;20203;-70
2022/08/29 00:45:17;;;;;;;2.63;1.90;;;23.30;54.70;;;;;;4461847;32;20578;-70
2022/08/29 00:47:50;;;;;;;3.03;2.05;;;23.30;54.70;;;;;;4462034;32;20239;-70
2022/08/29 00:50:30;;;;;;;3.45;1.73;;;23.30;54.70;;;;;;4462706;32;20116;-70
2022/08/29 00:52:58;;;;;;;3.42;1.90;;;23.30;54.80;;;;;;4462077;32;20227;-70
2022/08/29 00:55:27;;;;;;;4.05;1.80;;;23.30;54.80;;;;;;4461916;32;20124;-70
2022/08/29 00:58:01;;;;;;;2.92;1.77;;;23.30;54.80;;;;;;4461901;32;20196;-70
2022/08/29 01:00:27;;;;;;;4.30;1.92;;;23.30;54.90;;;;;;4462114;32;20291;-71
2022/08/29 01:02:54;;;;;;;2.80;1.90;;;23.30;54.90;;;;;;4461877;32;20089;-70
2022/08/29 01:05:21;;;;;;;4.10;2.28;;;23.30;54.80;;;;;;4461846;32;20208;-70
2022/08/29 01:07:48;;;;;;;2.47;1.80;;;23.20;54.80;;;;;;4461541;32;20098;-70
2022/08/29 01:13:04;;;;;;;2.40;1.40;;;23.30;54.90;;;;;;4429349;32;20223;-70
2022/08/29 01:15:31;;;;;;;3.25;1.70;;;23.20;54.90;;;;;;4461921;32;20414;-70
2022/08/29 01:17:58;;;;;;;2.25;1.60;;;23.20;54.90;;;;;;4461602;32;20534;-70
2022/08/29 01:20:43;;;;;;;4.35;2.20;;;23.20;54.90;;;;;;4447563;32;20066;-70
2022/08/29 01:23:16;;;;;;;3.05;1.63;;;23.20;55.00;;;;;;4461642;32;20415;-70
2022/08/29 01:25:48;;;;;;;3.35;1.77;;;23.20;55.00;;;;;;4461671;32;20220;-70
2022/08/29 01:28:23;;;;;;;4.13;2.00;;;23.20;55.00;;;;;;4447394;32;20069;-70
2022/08/29 01:31:12;;;;;;;2.13;1.52;;;23.20;55.10;;;;;;4447545;32;20062;-70
2022/08/29 01:33:43;;;;;;;2.17;1.60;;;23.20;55.10;;;;;;4461727;32;20073;-70
2022/08/29 01:36:14;;;;;;;3.33;1.70;;;23.20;55.10;;;;;;4461609;32;20076;-72
2022/08/29 01:38:40;;;;;;;2.33;1.40;;;23.20;55.10;;;;;;4461548;32;20514;-70
2022/08/29 01:41:09;;;;;;;2.13;1.67;;;23.20;55.10;;;;;;4461076;32;20231;-70
2022/08/29 01:43:43;;;;;;;2.95;1.73;;;23.20;55.10;;;;;;4461334;32;20074;-70
2022/08/29 01:46:11;;;;;;;3.47;1.60;;;23.20;55.20;;;;;;4460934;32;20234;-70
2022/08/29 01:48:40;;;;;;;3.00;2.00;;;23.20;55.10;;;;;;4461082;32;20082;-70
2022/08/29 01:51:06;;;;;;;3.50;1.75;;;23.20;55.20;;;;;;4461137;32;20077;-70
2022/08/29 01:53:32;;;;;;;2.60;1.70;;;23.10;55.10;;;;;;4461116;32;20076;-71
2022/08/29 01:55:58;;;;;;;2.03;1.38;;;23.20;55.20;;;;;;4461427;32;20086;-71
2022/08/29 01:58:24;;;;;;;3.55;1.80;;;23.20;55.20;;;;;;4460965;32;20112;-70
2022/08/29 02:00:50;;;;;;;3.35;1.60;;;23.20;55.20;;;;;;4461123;32;20212;-70
2022/08/29 02:03:17;;;;;;;2.33;1.33;;;23.20;55.20;;;;;;4461087;32;20510;-70
2022/08/29 02:05:46;;;;;;;2.22;1.48;;;23.20;55.20;;;;;;4460588;32;20093;-70
2022/08/29 02:08:13;;;;;;;2.95;1.58;;;23.10;55.20;;;;;;4460914;32;20450;-70
2022/08/29 02:10:38;;;;;;;1.95;1.50;;;23.20;55.30;;;;;;4460943;32;20070;-70
2022/08/29 02:13:04;;;;;;;2.53;1.70;;;23.20;55.30;;;;;;4461256;32;20299;-70
2022/08/29 02:15:30;;;;;;;3.35;1.60;;;23.10;55.30;;;;;;4460832;32;20069;-71
2022/08/29 02:17:56;;;;;;;2.88;1.50;;;23.10;55.30;;;;;;4460158;32;20128;-70
2022/08/29 02:20:21;;;;;;;4.20;1.42;;;23.10;55.30;;;;;;4460908;32;20482;-70
2022/08/29 02:22:47;;;;;;;2.45;1.58;;;23.10;55.30;;;;;;4460796;32;20081;-70
2022/08/29 02:27:57;;;;;;;2.53;1.50;;;23.10;55.40;;;;;;4461096;32;20195;-70
2022/08/29 02:30:24;;;;;;;2.53;1.55;;;23.10;55.40;;;;;;4446854;32;20473;-71
2022/08/29 02:32:50;;;;;;;4.03;1.63;;;23.10;55.40;;;;;;4460681;32;20074;-70
2022/08/29 02:35:16;;;;;;;2.75;1.23;;;23.10;55.40;;;;;;4460560;32;20108;-70
2022/08/29 02:37:42;;;;;;;1.70;1.40;;;23.10;55.40;;;;;;4460629;32;20090;-70
2022/08/29 02:40:08;;;;;;;2.88;1.52;;;23.10;55.40;;;;;;4446595;32;20085;-70
2022/08/29 02:42:34;;;;;;;2.38;1.60;;;23.10;55.40;;;;;;4460669;32;20546;-70
2022/08/29 02:45:00;;;;;;;2.90;1.40;;;23.10;55.50;;;;;;4460627;32;20219;-70
2022/08/29 02:47:26;;;;;;;2.33;1.55;;;23.10;55.50;;;;;;4460724;32;20111;-70
2022/08/29 02:49:52;;;;;;;2.25;1.38;;;23.10;55.60;;;;;;4446888;32;20100;-70
2022/08/29 02:52:18;;;;;;;2.15;1.50;;;23.10;55.50;;;;;;4460810;32;20479;-70
2022/08/29 02:54:43;;;;;;;2.67;1.50;;;23.10;55.60;;;;;;4460170;32;20089;-70
2022/08/29 02:57:09;;;;;;;1.50;1.20;;;23.10;55.60;;;;;;4446507;32;20071;-70
2022/08/29 02:59:35;;;;;;;3.88;1.70;;;23.10;55.60;;;;;;4460519;32;20065;-70
2022/08/29 03:02:01;;;;;;;2.72;1.65;;;23.10;55.60;;;;;;4460380;32;20515;-70
2022/08/29 03:04:27;;;;;;;2.92;1.30;;;23.10;55.70;;;;;;4460227;32;20077;-70
2022/08/29 03:06:53;;;;;;;3.35;1.50;;;23.10;55.70;;;;;;4446493;32;20467;-71
2022/08/29 03:09:20;;;;;;;2.83;1.40;;;23.10;55.70;;;;;;4459922;32;20078;-70
2022/08/29 03:11:45;;;;;;;3.05;1.63;;;23.10;55.70;;;;;;4460236;32;20072;-71
2022/08/29 03:14:11;;;;;;;2.40;1.40;;;23.10;55.70;;;;;;4460472;32;20155;-71
2022/08/29 03:16:37;;;;;;;4.22;1.50;;;23.10;55.70;;;;;;4460175;32;20054;-70
2022/08/29 03:19:03;;;;;;;3.17;1.20;;;23.10;55.80;;;;;;4459748;32;20092;-70
2022/08/29 03:21:30;;;;;;;2.30;1.58;;;23.10;55.80;;;;;;4446231;32;20073;-70
2022/08/29 03:23:56;;;;;;;2.70;1.48;;;23.10;55.80;;;;;;4460178;32;20070;-70
2022/08/29 03:26:24;;;;;;;2.72;1.20;;;23.10;55.80;;;;;;4446178;32;20092;-71
2022/08/29 03:28:50;;;;;;;2.70;1.40;;;23.10;55.80;;;;;;4460022;32;20215;-70
2022/08/29 03:31:16;;;;;;;2.03;1.33;;;23.10;55.90;;;;;;4463050;32;20076;-70
2022/08/29 03:33:41;;;;;;;1.98;1.10;;;23.10;55.90;;;;;;4463036;32;20077;-70
2022/08/29 03:36:08;;;;;;;1.98;1.02;;;23.10;55.90;;;;;;4463410;32;20349;-71
2022/08/29 03:38:36;;;;;;;1.83;1.15;;;23.00;55.80;;;;;;4463142;32;20132;-70
2022/08/29 03:41:04;;;;;;;2.38;1.25;;;23.00;55.90;;;;;;4448652;32;20082;-70
2022/08/29 03:43:30;;;;;;;2.13;1.05;;;23.10;56.00;;;;;;4463351;32;20099;-70
2022/08/29 03:45:56;;;;;;;1.80;1.17;;;23.10;56.00;;;;;;4463270;32;20387;-70
2022/08/29 03:48:21;;;;;;;1.83;1.27;;;23.10;56.00;;;;;;4462942;32;20395;-70
2022/08/29 03:50:48;;;;;;;2.20;1.40;;;23.00;55.90;;;;;;4448728;32;20070;-70
2022/08/29 03:53:14;;;;;;;3.20;1.80;;;23.10;56.00;;;;;;4463183;32;20406;-70
2022/08/29 03:55:40;;;;;;;1.45;1.05;;;23.00;55.90;;;;;;4462897;32;20497;-70
2022/08/29 03:58:06;;;;;;;2.08;1.10;;;23.00;56.00;;;;;;4462958;32;20482;-70
2022/08/29 04:00:32;;;;;;;1.73;1.10;;;23.00;56.00;;;;;;4462776;32;20517;-70
2022/08/29 04:02:58;;;;;;;1.60;1.05;;;23.00;56.00;;;;;;4462771;32;20400;-70
2022/08/29 04:05:24;;;;;;;1.60;1.10;;;23.00;56.10;;;;;;4462917;32;20279;-70
2022/08/29 04:07:53;;;;;;;2.15;1.20;;;23.00;56.10;;;;;;4462647;32;20495;-70
2022/08/29 04:10:26;;;;;;;2.65;1.17;;;23.00;56.10;;;;;;4462636;32;20227;-70
2022/08/29 04:12:53;;;;;;;2.40;1.23;;;23.00;56.10;;;;;;4462751;32;20097;-70
2022/08/29 04:15:19;;;;;;;1.63;1.05;;;23.00;56.10;;;;;;4462395;32;20221;-70
2022/08/29 04:17:45;;;;;;;2.38;1.50;;;23.00;56.10;;;;;;4462567;32;20070;-70
2022/08/29 04:20:12;;;;;;;1.77;1.15;;;23.00;56.10;;;;;;4462226;32;20223;-70
2022/08/29 04:22:40;;;;;;;1.85;1.20;;;23.00;56.10;;;;;;4462754;32;20085;-70
2022/08/29 04:25:10;;;;;;;2.13;1.10;;;23.00;56.20;;;;;;4462458;32;20568;-70
2022/08/29 04:27:35;;;;;;;2.88;1.23;;;23.00;56.20;;;;;;4462419;32;20098;-70
2022/08/29 04:30:09;;;;;;;1.67;1.00;;;23.00;56.20;;;;;;4462635;32;20069;-70
2022/08/29 04:32:35;;;;;;;2.08;1.35;;;23.00;56.20;;;;;;4462477;32;20086;-70
2022/08/29 04:35:01;;;;;;;2.20;1.13;;;22.90;56.20;;;;;;4462374;32;20121;-70
2022/08/29 04:37:27;;;;;;;1.60;0.82;;;22.90;56.20;;;;;;4462278;32;20135;-70
2022/08/29 04:39:53;;;;;;;2.30;1.25;;;23.00;56.20;;;;;;4461642;32;20077;-70
2022/08/29 04:42:20;;;;;;;3.00;1.30;;;23.00;56.20;;;;;;4462069;32;20062;-70
2022/08/29 04:44:47;;;;;;;2.22;1.00;;;23.00;56.20;;;;;;4448372;32;20477;-70
2022/08/29 04:47:13;;;;;;;2.40;1.17;;;22.90;56.20;;;;;;4462406;32;20073;-70
2022/08/29 04:49:41;;;;;;;2.35;1.10;;;22.90;56.30;;;;;;4447775;32;20515;-70
2022/08/29 04:52:08;;;;;;;1.77;1.17;;;22.90;56.30;;;;;;4462101;32;20577;-70
2022/08/29 04:54:34;;;;;;;1.27;1.00;;;23.00;56.30;;;;;;4462204;32;20092;-71
2022/08/29 04:57:02;;;;;;;1.95;1.10;;;23.00;56.40;;;;;;4461965;32;20598;-70
2022/08/29 04:59:29;;;;;;;1.40;1.17;;;23.00;56.40;;;;;;4461853;32;20073;-70
2022/08/29 05:01:55;;;;;;;2.08;1.08;;;23.00;56.40;;;;;;4461687;32;20092;-70
2022/08/29 05:04:21;;;;;;;2.28;1.15;;;22.90;56.30;;;;;;4461981;32;20086;-70
2022/08/29 05:06:46;;;;;;;1.42;1.00;;;22.90;56.30;;;;;;4462066;32;20098;-70
2022/08/29 05:09:12;;;;;;;1.27;0.93;;;22.90;56.30;;;;;;4462422;32;20388;-78
2022/08/29 05:11:40;;;;;;;1.45;1.02;;;22.90;56.40;;;;;;4462059;32;20194;-70
2022/08/29 05:14:06;;;;;;;1.40;1.05;;;22.90;56.40;;;;;;4461546;32;20092;-70
2022/08/29 05:16:35;;;;;;;2.22;1.25;;;22.90;56.40;;;;;;4461729;32;20058;-70
2022/08/29 05:19:04;;;;;;;1.65;1.00;;;22.90;56.40;;;;;;4461654;32;20076;-70
2022/08/29 05:21:32;;;;;;;2.97;1.40;;;22.90;56.50;;;;;;4461631;32;20128;-70
2022/08/29 05:23:58;;;;;;;1.80;1.08;;;22.90;56.40;;;;;;4461837;32;20144;-70
2022/08/29 05:26:39;;;;;;;1.75;0.98;;;22.90;56.50;;;;;;4461318;32;20081;-70
2022/08/29 05:29:07;;;;;;;1.80;1.13;;;22.90;56.50;;;;;;4461663;32;20518;-70
2022/08/29 05:31:35;;;;;;;1.75;0.90;;;22.90;56.50;;;;;;4461764;32;20125;-71
2022/08/29 05:34:02;;;;;;;2.67;1.40;;;22.90;56.50;;;;;;4447708;32;20191;-70
2022/08/29 05:36:28;;;;;;;2.03;1.00;;;22.90;56.60;;;;;;4461465;32;20074;-70
2022/08/29 05:38:54;;;;;;;1.70;0.88;;;22.90;56.60;;;;;;4461574;32;20084;-70
2022/08/29 05:41:20;;;;;;;2.85;1.20;;;22.90;56.60;;;;;;4461084;32;20082;-70
2022/08/29 05:43:46;;;;;;;1.77;1.10;;;22.90;56.60;;;;;;4461375;32;20079;-70
2022/08/29 05:46:12;;;;;;;2.83;1.33;;;22.90;56.60;;;;;;4447086;32;20084;-70
2022/08/29 05:48:41;;;;;;;2.67;1.10;;;22.90;56.60;;;;;;4460923;32;20062;-70
2022/08/29 05:51:13;;;;;;;2.08;1.05;;;22.90;56.70;;;;;;4461084;32;20712;-70
2022/08/29 05:53:39;;;;;;;2.35;1.33;;;22.90;56.70;;;;;;4461221;32;20074;-70
2022/08/29 05:56:05;;;;;;;1.17;1.08;;;22.90;56.60;;;;;;4461302;32;20076;-71
2022/08/29 05:58:30;;;;;;;2.00;1.05;;;22.90;56.70;;;;;;4461150;32;20070;-70
2022/08/29 06:00:56;;;;;;;1.92;1.10;;;22.90;56.70;;;;;;4460755;32;20559;-70
2022/08/29 06:03:22;;;;;;;1.40;1.10;;;22.90;56.60;;;;;;4460768;32;20135;-70
2022/08/29 06:05:52;;;;;;;1.80;0.98;;;22.90;56.70;;;;;;4461004;32;20159;-70
2022/08/29 06:08:19;;;;;;;2.17;1.13;;;22.90;56.80;;;;;;4461038;32;20093;-70
2022/08/29 06:10:46;;;;;;;2.08;1.13;;;22.90;56.70;;;;;;4460997;32;20402;-70
2022/08/29 06:13:13;;;;;;;2.45;1.20;;;22.90;56.70;;;;;;4460901;32;20510;-70
2022/08/29 06:15:43;;;;;;;1.65;1.10;;;22.90;56.70;;;;;;4447235;32;20084;-70
2022/08/29 06:18:09;;;;;;;1.23;0.98;;;22.90;56.70;;;;;;4461085;32;20069;-73
2022/08/29 06:20:37;;;;;;;1.55;0.95;;;22.90;56.70;;;;;;4460759;32;20100;-71
2022/08/29 06:23:03;;;;;;;3.33;1.30;;;22.90;56.80;;;;;;4460762;32;20136;-72
2022/08/29 06:25:29;;;;;;;4.57;1.33;;;22.90;56.90;;;;;;4460823;32;20207;-72
2022/08/29 06:27:54;;;;;;;4.20;1.80;;;22.90;57.10;;;;;;4460647;32;20099;-71
2022/08/29 06:30:20;;;;;;;3.03;1.25;;;22.90;57.30;;;;;;4460766;32;20073;-72
2022/08/29 06:32:47;;;;;;;18.45;1.38;;;22.90;57.50;;;;;;4460607;32;20078;-72
2022/08/29 06:35:12;;;;;;;3.35;1.40;;;22.90;57.80;;;;;;4460674;32;20159;-73
2022/08/29 06:37:40;;;;;;;4.60;1.60;;;22.90;57.90;;;;;;4460622;32;20074;-73
2022/08/29 06:40:06;;;;;;;8.13;1.90;;;23.00;58.10;;;;;;4460737;32;20077;-72
2022/08/29 06:42:32;;;;;;;5.38;1.80;;;22.90;58.30;;;;;;4460125;32;20191;-72
2022/08/29 06:44:58;;;;;;;4.82;2.15;;;22.90;58.50;;;;;;4460769;32;20474;-72
2022/08/29 06:47:24;;;;;;;6.72;1.73;;;22.90;58.60;;;;;;4460419;32;20066;-71
2022/08/29 06:49:50;;;;;;;4.38;2.00;;;22.90;58.80;;;;;;4446382;32;20146;-71
2022/08/29 06:52:16;;;;;;;4.75;1.80;;;22.90;59.00;;;;;;4460485;32;20223;-71
2022/08/29 06:54:42;;;;;;;8.60;2.30;;;23.00;59.00;;;;;;4460663;32;20070;-71
2022/08/29 06:57:07;;;;;;;8.57;2.50;;;23.00;59.10;;;;;;4460168;32;20456;-71
2022/08/29 06:59:34;;;;;;;8.05;2.30;;;23.00;59.20;;;;;;4460336;32;20062;-71
2022/08/29 07:02:00;;;;;;;6.00;1.90;;;23.00;59.30;;;;;;4460390;32;20208;-71
2022/08/29 07:04:26;;;;;;;7.85;2.33;;;23.00;59.30;;;;;;4462556;32;20072;-70
2022/08/29 07:06:51;;;;;;;6.57;2.05;;;23.00;59.30;;;;;;4449366;32;20074;-71
2022/08/29 07:09:18;;;;;;;8.30;2.20;;;23.00;59.30;;;;;;4463748;32;20106;-71
2022/08/29 07:11:44;;;;;;;5.07;1.80;;;23.00;59.40;;;;;;4463505;32;20418;-71
2022/08/29 07:14:12;;;;;;;6.63;2.25;;;23.00;59.60;;;;;;4463724;32;20086;-72
2022/08/29 07:16:39;;;;;;;6.45;2.28;;;23.00;59.70;;;;;;4463167;32;20110;-71
2022/08/29 07:19:07;;;;;;;8.13;2.35;;;23.00;59.80;;;;;;4463537;32;20214;-71
2022/08/29 07:21:34;;;;;;;8.35;2.35;;;23.00;59.90;;;;;;4463091;32;20385;-71
2022/08/29 07:24:00;;;;;;;7.00;2.22;;;23.00;60.10;;;;;;4463354;32;20082;-71
2022/08/29 07:26:32;;;;;;;6.50;2.30;;;23.00;60.10;;;;;;4463161;32;20070;-71
2022/08/29 07:29:02;;;;;;;8.80;2.50;;;23.00;61.10;;;;;;4463290;32;20455;-70
2022/08/29 07:31:28;;;;;;;8.27;2.33;;;23.00;60.30;;;;;;4463211;32;20121;-70
2022/08/29 07:33:53;;;;;;;9.95;2.38;;;23.00;60.40;;;;;;4463178;32;20092;-71
2022/08/29 07:36:19;;;;;;;7.32;2.75;;;22.90;60.40;;;;;;4449362;32;20066;-72
2022/08/29 07:38:45;;;;;;;8.95;2.40;;;22.90;60.50;;;;;;4462740;32;20078;-71
2022/08/29 07:41:13;;;;;;;6.40;2.60;;;22.90;60.50;;;;;;4462541;32;20153;-71
2022/08/29 07:43:40;;;;;;;11.38;2.78;;;22.90;60.60;;;;;;4463361;32;20078;-71
2022/08/29 07:46:12;;;;;;;8.60;2.75;;;23.00;60.60;;;;;;4463196;32;20077;-71
2022/08/29 07:48:39;;;;;;;6.03;2.53;;;23.00;60.70;;;;;;4463235;32;20132;-71
2022/08/29 07:51:10;;;;;;;8.40;2.97;;;22.90;60.60;;;;;;4462618;32;20073;-70
2022/08/29 07:53:36;;;;;;;10.82;2.45;;;23.00;60.70;;;;;;4463243;32;20085;-70
2022/08/29 07:56:07;;;;;;;8.63;2.90;;;23.00;60.80;;;;;;4462518;32;20077;-70
2022/08/29 07:58:34;;;;;;;10.10;3.45;;;23.00;61.00;;;;;;4462593;32;20070;-70
2022/08/29 08:00:59;;;;;;;7.53;2.55;;;23.00;61.10;;;;;;4462710;32;20247;-70
2022/08/29 08:03:26;;;;;;;10.30;3.05;;;23.00;61.10;;;;;;4462833;32;20083;-70
2022/08/29 08:05:52;;;;;;;7.35;2.67;;;23.00;61.20;;;;;;4436101;32;20077;-71
2022/08/29 08:08:18;;;;;;;8.38;3.20;;;23.00;61.20;;;;;;4462687;32;20235;-70
2022/08/29 08:10:44;;;;;;;12.25;3.30;;;23.00;61.20;;;;;;4462633;32;20077;-70
2022/08/29 08:13:10;;;;;;;8.52;3.00;;;23.00;61.10;;;;;;4462874;32;20495;-70
2022/08/29 08:15:37;;;;;;;7.32;2.80;;;23.00;61.10;;;;;;4461995;32;20093;-70
2022/08/29 08:18:03;;;;;;;12.75;3.10;;;23.00;61.10;;;;;;4462250;32;20223;-70
2022/08/29 08:20:29;;;;;;;6.18;2.75;;;23.00;61.10;;;;;;4462192;32;20095;-70
2022/08/29 08:22:56;;;;;;;8.10;2.60;;;23.00;61.10;;;;;;4462521;32;20082;-70
2022/08/29 08:25:23;;;;;;;8.68;2.60;;;23.00;61.10;;;;;;4448531;32;20082;-70
2022/08/29 08:27:49;;;;;;;9.63;2.70;;;23.00;61.10;;;;;;4462644;32;20089;-70
2022/08/29 08:30:15;;;;;;;8.80;2.65;;;23.00;61.20;;;;;;4462599;32;20070;-69
2022/08/29 08:32:41;;;;;;;9.07;3.00;;;23.10;61.20;;;;;;4462364;32;20092;-70
2022/08/29 08:35:08;;;;;;;8.60;2.75;;;23.10;61.20;;;;;;4462084;32;20280;-69
2022/08/29 08:37:34;;;;;;;7.45;3.20;;;23.10;61.30;;;;;;4462267;32;20080;-73
2022/08/29 08:40:00;;;;;;;7.90;2.90;;;23.10;61.20;;;;;;4461713;32;20066;-70
2022/08/29 08:42:42;;;;;;;9.20;2.92;;;23.00;61.20;;;;;;4461621;32;20080;-70
2022/08/29 08:45:15;;;;;;;6.07;2.70;;;23.10;61.30;;;;;;4462224;32;20129;-71
2022/08/29 08:47:49;;;;;;;8.80;3.13;;;23.10;61.20;;;;;;4462370;32;20492;-70
2022/08/29 08:50:42;;;;;;;10.15;3.22;;;23.10;61.20;;;;;;4462192;32;20200;-70
2022/08/29 08:53:23;;;;;;;5.68;2.78;;;23.10;61.20;;;;;;4462133;32;20195;-71
2022/08/29 08:55:54;;;;;;;5.90;2.50;;;23.10;61.20;;;;;;4462120;32;20104;-70
2022/08/29 08:58:51;;;;;;;7.30;2.28;;;23.10;61.20;;;;;;4462074;32;20070;-70
2022/08/29 09:01:19;;;;;;;5.85;2.33;;;23.10;61.20;;;;;;4462085;32;20096;-70
2022/08/29 09:03:51;;;;;;;7.57;2.88;;;23.10;61.20;;;;;;4461860;32;20132;-70
2022/08/29 09:06:39;;;;;;;6.63;2.67;;;23.10;61.30;;;;;;4462020;32;20077;-70
2022/08/29 09:09:13;;;;;;;5.75;2.55;;;23.10;61.20;;;;;;4461965;32;20093;-70
2022/08/29 09:12:13;;;;;;;8.73;2.83;;;23.10;61.30;;;;;;4461771;32;20074;-70
2022/08/29 09:14:45;;;;;;;10.15;3.00;;;23.20;61.20;;;;;;4461874;32;20074;-71
2022/08/29 09:17:22;;;;;;;7.10;3.05;;;23.10;61.10;;;;;;4461853;32;20101;-70
2022/08/29 09:19:49;;;;;;;6.25;2.58;;;23.20;61.20;;;;;;4461927;32;20069;-70
2022/08/29 09:22:25;;;;;;;6.45;2.63;;;23.20;61.20;;;;;;4461639;32;20077;-70
2022/08/29 09:25:01;;;;;;;8.25;2.63;;;23.20;61.10;;;;;;4461568;32;20077;-69
2022/08/29 09:27:31;;;;;;;7.85;2.78;;;23.20;61.10;;;;;;4460788;32;20183;-72
2022/08/29 09:30:06;;;;;;;8.57;2.72;;;23.20;61.10;;;;;;4461606;32;20092;-71
2022/08/29 09:32:32;;;;;;;8.95;2.67;;;23.20;61.10;;;;;;4462031;32;20073;-71
2022/08/29 09:34:58;;;;;;;8.27;2.90;;;23.20;61.10;;;;;;4461715;32;20267;-72
2022/08/29 09:37:32;;;;;;;7.18;2.92;;;23.20;61.00;;;;;;4461474;32;20243;-73
2022/08/29 09:40:11;;;;;;;8.43;2.80;;;23.20;61.20;;;;;;4461409;32;20407;-72
2022/08/29 09:42:40;;;;;;;7.70;3.10;;;23.20;61.10;;;;;;4460983;32;20622;-72
2022/08/29 09:45:23;;;;;;;9.68;2.50;;;23.20;61.20;;;;;;4461341;32;20529;-72
2022/08/29 09:48:13;;;;;;;7.85;2.67;;;23.30;61.30;;;;;;4461406;32;20070;-72
2022/08/29 09:50:39;;;;;;;9.48;2.67;;;23.30;61.20;;;;;;4461486;32;20491;-75
2022/08/29 09:53:05;;;;;;;8.73;2.70;;;23.30;61.20;;;;;;4461110;32;20094;-71
2022/08/29 09:55:44;;;;;;;9.13;3.17;;;23.30;61.20;;;;;;4461081;32;20612;-72
2022/08/29 09:58:29;;;;;;;9.75;2.53;;;23.30;61.30;;;;;;4447301;32;20081;-72
2022/08/29 10:01:08;;;;;;;7.00;2.45;;;23.30;61.30;;;;;;4461072;32;20078;-71
2022/08/29 10:03:41;;;;;;;8.77;3.00;;;23.30;61.30;;;;;;4461007;32;20065;-71
2022/08/29 10:06:15;;;;;;;10.70;2.88;;;23.30;61.20;;;;;;4461417;32;20082;-72
2022/08/29 10:09:03;;;;;;;8.27;2.65;;;23.30;61.20;;;;;;4461214;32;20088;-72
2022/08/29 10:11:45;;;;;;;6.63;2.63;;;23.30;61.30;;;;;;4461028;32;20080;-70
2022/08/29 10:14:32;;;;;;;9.07;2.90;;;23.30;61.20;;;;;;4461144;32;20484;-72
2022/08/29 10:20:43;;;;;;;8.15;2.55;;;23.30;61.10;;;;;;4461124;32;20395;-71
2022/08/29 10:23:23;;;;;;;5.25;2.50;;;23.30;61.30;;;;;;4460817;32;20377;-74
2022/08/29 10:25:49;;;;;;;7.95;2.67;;;23.40;61.40;;;;;;4460759;32;20065;-74
2022/08/29 10:28:31;;;;;;;15.80;2.40;;;23.40;61.30;;;;;;4460794;32;20163;-74
2022/08/29 10:31:01;;;;;;;8.45;2.70;;;23.40;61.10;;;;;;4461087;32;20089;-73
2022/08/29 10:34:19;;;;;;;7.25;2.70;;;23.40;61.30;;;;;;4461446;32;20171;-74
2022/08/29 10:36:54;;;;;;;7.55;2.67;;;23.40;61.20;;;;;;4434656;32;20184;-70
2022/08/29 10:39:43;;;;;;;9.57;2.33;;;23.40;61.30;;;;;;4460891;32;20081;-71
2022/08/29 10:42:14;;;;;;;8.45;2.70;;;23.40;61.20;;;;;;4460489;32;20171;-71
2022/08/29 10:45:20;;;;;;;7.05;2.42;;;23.40;61.20;;;;;;4460891;32;20159;-72
2022/08/29 10:47:51;;;;;;;7.38;2.70;;;23.40;61.10;;;;;;4460877;32;20092;-70
2022/08/29 10:50:40;;;;;;;7.97;2.55;;;23.40;61.00;;;;;;4460573;32;20082;-70
2022/08/29 10:53:25;;;;;;;6.78;2.05;;;23.40;61.10;;;;;;4460475;32;20223;-71
2022/08/29 10:56:00;;;;;;;10.07;3.05;;;23.40;61.20;;;;;;4460481;32;20074;-71
2022/08/29 10:58:49;;;;;;;9.43;2.88;;;23.40;61.10;;;;;;4460567;32;20080;-71
2022/08/29 11:01:27;;;;;;;9.77;2.80;;;23.40;61.20;;;;;;4460511;32;20074;-70
2022/08/29 11:04:16;;;;;;;12.55;2.60;;;23.40;61.10;;;;;;4460539;32;20092;-71
2022/08/29 11:07:10;;;;;;;14.07;2.60;;;23.40;61.20;;;;;;4460247;32;20086;-71
2022/08/29 11:09:42;;;;;;;8.07;2.33;;;23.40;61.20;;;;;;4460408;32;20499;-68
2022/08/29 11:12:18;;;;;;;7.72;2.38;;;23.40;61.10;;;;;;4460567;32;20252;-82
2022/08/29 11:14:59;;;;;;;9.27;2.50;;;23.40;61.20;;;;;;4460814;32;20163;-70
2022/08/29 11:17:30;;;;;;;9.82;2.70;;;23.40;62.10;;;;;;4460394;32;20474;-69
2022/08/29 11:20:15;;;;;;;8.80;2.47;;;23.40;61.10;;;;;;4460937;32;20084;-70
2022/08/29 11:22:48;;;;;;;8.15;2.20;;;23.40;61.10;;;;;;4460636;32;20089;-69
2022/08/29 11:25:18;;;;;;;6.22;2.40;;;23.40;61.10;;;;;;4460766;32;20074;-69
2022/08/29 11:27:57;;;;;;;8.55;2.50;;;23.40;61.10;;;;;;4460502;32;20093;-69
2022/08/29 11:30:44;;;;;;;6.45;2.17;;;23.40;61.00;;;;;;4460263;32;20499;-70
2022/08/29 11:33:15;;;;;;;7.50;2.58;;;23.40;61.00;;;;;;4460299;32;20100;-70
2022/08/29 11:35:53;;;;;;;7.82;2.45;;;23.40;61.00;;;;;;4460496;32;20074;-70
2022/08/29 11:39:01;;;;;;;8.57;2.00;;;23.40;61.00;;;;;;4460189;32;20096;-69
2022/08/29 11:41:39;;;;;;;8.13;3.05;;;23.40;60.80;;;;;;4459073;32;20061;-70
2022/08/29 11:44:34;;;;;;;12.63;2.78;;;23.40;60.90;;;;;;4460140;32;20208;-70
2022/08/29 11:47:00;;;;;;;8.23;2.45;;;23.50;60.90;;;;;;4446219;32;20591;-70
2022/08/29 11:49:37;;;;;;;5.57;1.90;;;23.40;60.90;;;;;;4460148;32;20088;-70
2022/08/29 11:52:11;;;;;;;6.07;2.00;;;23.40;60.80;;;;;;4463263;32;20105;-69
2022/08/29 11:54:38;;;;;;;6.65;2.00;;;23.40;60.90;;;;;;4463076;32;20080;-69
2022/08/29 11:57:04;;;;;;;7.70;2.47;;;23.40;60.80;;;;;;4462849;32;20092;-69
2022/08/29 11:59:48;;;;;;;5.65;2.10;;;23.40;60.80;;;;;;4462776;32;20086;-69
2022/08/29 12:02:38;;;;;;;;;;;23.50;61.10;;;;;;4463511;32;20078;-70
2022/08/29 12:05:26;;;;;;;5.70;2.20;;;23.50;61.10;;;;;;4455031;32;20489;-70
2022/08/29 12:08:15;;;;;;;6.95;1.90;;;23.50;61.00;;;;;;4462982;32;20144;-70
2022/08/29 12:10:54;;;;;;;5.50;2.10;;;23.50;61.10;;;;;;4462779;32;20074;-71
2022/08/29 12:13:59;;;;;;;6.53;2.20;;;23.50;61.10;;;;;;4462491;32;20724;-72
2022/08/29 12:16:43;;;;;;;5.72;1.92;;;23.50;61.10;;;;;;4462272;32;20191;-70
2022/08/29 12:19:09;;;;;;;10.85;2.05;;;23.50;61.00;;;;;;4462598;32;20081;-71
2022/08/29 12:21:35;;;;;;;7.57;1.90;;;23.60;61.00;;;;;;4462373;32;20478;-75
2022/08/29 12:24:25;;;;;;;7.35;1.90;;;23.60;61.10;;;;;;4462740;32;20085;-70
2022/08/29 12:26:51;;;;;;;4.32;1.92;;;23.60;61.00;;;;;;4448684;32;20066;-70
2022/08/29 12:29:29;;;;;;;7.95;2.35;;;23.60;60.90;;;;;;4462260;32;20077;-70
2022/08/29 12:32:17;;;;;;;6.07;2.17;;;23.70;60.80;;;;;;4462467;32;20232;-71
2022/08/29 12:34:56;;;;;;;7.85;2.10;;;23.70;60.80;;;;;;4462672;32;20471;-70
2022/08/29 12:37:42;;;;;;;7.63;2.20;;;23.70;60.80;;;;;;4462413;32;20228;-70
2022/08/29 12:40:11;;;;;;;6.32;1.98;;;23.80;60.60;;;;;;4461762;32;20239;-70
2022/08/29 12:43:06;;;;;;;6.88;2.05;;;23.80;60.60;;;;;;4462321;32;20085;-71
2022/08/29 12:45:34;;;;;;;5.65;1.98;;;23.80;60.70;;;;;;4455062;32;20080;-70
2022/08/29 12:48:32;;;;;;;7.57;2.33;;;23.80;60.50;;;;;;4461939;32;20085;-71
2022/08/29 12:50:59;;;;;;;6.60;2.10;;;23.80;60.40;;;;;;4457737;32;20117;-73
2022/08/29 12:53:33;;;;;;;7.82;2.05;;;23.80;60.40;;;;;;4461753;32;20092;-70
2022/08/29 12:56:21;;;;;;;10.05;2.30;;;23.80;60.30;;;;;;4462339;32;20102;-70
2022/08/29 12:58:59;;;;;;;8.50;2.30;;;23.90;60.30;;;;;;4462364;32;20090;-70
2022/08/29 13:01:36;;;;;;;12.23;2.15;;;23.90;60.20;;;;;;4461589;32;20100;-73
2022/08/29 13:04:08;;;;;;;5.07;1.92;;;23.90;60.30;;;;;;4448214;32;20605;-70
2022/08/29 13:06:34;;;;;;;6.82;1.77;;;23.90;60.40;;;;;;4461694;32;20666;-70
2022/08/29 13:09:01;;;;;;;9.13;2.03;;;23.90;60.40;;;;;;4461486;32;20078;-71
2022/08/29 13:11:29;;;;;;;6.63;2.17;;;23.90;60.40;;;;;;4462054;32;20178;-71
2022/08/29 13:14:10;;;;;;;9.70;2.10;;;23.90;60.40;;;;;;4461461;32;20066;-71